createdAt,value
2018-08-17T00:00:56.550Z,81.75
2018-08-17T00:01:56.478Z,83.00
2018-08-17T00:02:56.404Z,82.52
2018-08-17T00:03:56.331Z,82.23
2018-08-17T00:04:56.258Z,82.52
2018-08-17T00:05:56.185Z,82.14
2018-08-17T00:06:56.115Z,82.23
2018-08-17T00:07:56.043Z,82.71
2018-08-17T00:08:55.984Z,82.32
2018-08-17T00:09:55.891Z,84.06
2018-08-17T00:10:55.821Z,83.39
2018-08-17T00:11:55.750Z,83.86
2018-08-17T00:12:55.674Z,84.54
2018-08-17T00:13:55.602Z,84.44
2018-08-17T00:14:55.529Z,83.96
2018-08-17T00:15:55.457Z,83.67
2018-08-17T00:16:55.381Z,84.54
2018-08-17T00:17:55.308Z,83.19
2018-08-17T00:18:55.238Z,84.63
2018-08-17T00:19:55.163Z,83.29
2018-08-17T00:20:55.095Z,83.67
2018-08-17T00:21:55.018Z,82.90
2018-08-17T00:22:54.945Z,82.90
2018-08-17T00:23:54.871Z,83.29
2018-08-17T00:24:54.801Z,83.86
2018-08-17T00:25:54.725Z,84.16
2018-08-17T00:26:54.653Z,83.29
2018-08-17T00:27:54.579Z,83.48
2018-08-17T00:28:54.506Z,83.77
2018-08-17T00:29:54.438Z,83.86
2018-08-17T00:30:54.362Z,84.01
2018-08-17T00:31:54.291Z,84.25
2018-08-17T00:32:54.214Z,84.21
2018-08-17T00:33:54.143Z,84.50
2018-08-17T00:34:54.069Z,84.59
2018-08-17T00:35:53.993Z,84.59
2018-08-17T00:36:53.921Z,84.59
2018-08-17T00:37:53.847Z,84.11
2018-08-17T00:38:53.774Z,84.98
2018-08-17T00:39:53.703Z,84.40
2018-08-17T00:40:53.627Z,84.36
2018-08-17T00:41:53.558Z,85.03
2018-08-17T00:42:53.486Z,85.80
2018-08-17T00:43:53.411Z,85.61
2018-08-17T00:44:53.338Z,86.09
2018-08-17T00:45:53.263Z,86.28
2018-08-17T00:46:53.192Z,86.28
2018-08-17T00:47:53.159Z,86.57
2018-08-17T00:48:53.040Z,86.28
2018-08-17T00:49:52.969Z,86.18
2018-08-17T00:50:52.899Z,85.80
2018-08-17T00:51:52.825Z,85.32
2018-08-17T00:52:52.747Z,85.51
2018-08-17T00:53:52.675Z,85.80
2018-08-17T00:54:52.602Z,86.28
2018-08-17T00:55:52.531Z,87.15
2018-08-17T00:56:52.456Z,86.66
2018-08-17T00:57:52.381Z,85.80
2018-08-17T00:58:52.310Z,84.94
2018-08-17T00:59:52.236Z,85.22
2018-08-17T01:00:52.160Z,84.84
2018-08-17T01:01:52.088Z,84.94
2018-08-17T01:02:52.014Z,85.32
2018-08-17T01:03:51.946Z,85.41
2018-08-17T01:04:51.865Z,85.61
2018-08-17T01:05:51.795Z,85.71
2018-08-17T01:06:51.721Z,86.57
2018-08-17T01:07:51.654Z,86.18
2018-08-17T01:08:51.570Z,85.41
2018-08-17T01:09:51.499Z,85.80
2018-08-17T01:10:51.426Z,85.41
2018-08-17T01:11:51.350Z,86.38
2018-08-17T01:12:51.277Z,86.95
2018-08-17T01:13:51.207Z,86.09
2018-08-17T01:14:51.132Z,86.28
2018-08-17T01:15:51.062Z,86.66
2018-08-17T01:16:50.984Z,86.95
2018-08-17T01:17:50.909Z,87.24
2018-08-17T01:18:50.842Z,86.28
2018-08-17T01:19:50.771Z,86.18
2018-08-17T01:20:50.687Z,85.51
2018-08-17T01:21:50.615Z,86.38
2018-08-17T01:22:50.544Z,86.18
2018-08-17T01:23:50.472Z,86.09
2018-08-17T01:24:50.397Z,86.85
2018-08-17T01:25:50.320Z,85.61
2018-08-17T01:26:50.248Z,86.18
2018-08-17T01:27:50.176Z,86.18
2018-08-17T01:28:50.104Z,86.57
2018-08-17T01:29:50.029Z,86.95
2018-08-17T01:30:49.954Z,86.95
2018-08-17T01:31:49.880Z,87.24
2018-08-17T01:32:49.806Z,87.53
2018-08-17T01:33:49.737Z,86.66
2018-08-17T01:34:49.660Z,87.05
2018-08-17T01:35:49.586Z,86.95
2018-08-17T01:36:49.513Z,86.38
2018-08-17T01:37:49.440Z,86.28
2018-08-17T01:38:49.378Z,86.66
2018-08-17T01:39:49.293Z,86.66
2018-08-17T01:40:49.220Z,86.47
2018-08-17T01:41:49.146Z,86.38
2018-08-17T01:42:49.082Z,87.15
2018-08-17T01:43:48.996Z,88.20
2018-08-17T01:44:48.921Z,87.96
2018-08-17T01:45:48.848Z,87.24
2018-08-17T01:46:48.782Z,86.95
2018-08-17T01:47:48.701Z,88.30
2018-08-17T01:48:48.639Z,89.16
2018-08-17T01:49:48.597Z,88.93
2018-08-17T01:50:48.484Z,88.25
2018-08-17T01:51:48.407Z,88.45
2018-08-17T01:52:48.334Z,89.02
2018-08-17T01:53:48.257Z,88.35
2018-08-17T01:54:48.186Z,87.96
2018-08-17T01:55:48.115Z,88.83
2018-08-17T01:56:48.037Z,88.83
2018-08-17T01:57:47.963Z,88.30
2018-08-17T01:58:47.892Z,88.25
2018-08-17T01:59:47.828Z,88.16
2018-08-17T02:00:47.741Z,87.58
2018-08-17T02:01:47.675Z,87.77
2018-08-17T02:02:47.603Z,89.02
2018-08-17T02:03:47.525Z,88.45
2018-08-17T02:04:47.459Z,89.50
2018-08-17T02:05:47.380Z,88.93
2018-08-17T02:06:47.302Z,89.50
2018-08-17T02:07:47.246Z,88.73
2018-08-17T02:08:47.152Z,89.12
2018-08-17T02:09:47.079Z,88.73
2018-08-17T02:10:47.005Z,90.08
2018-08-17T02:11:46.931Z,89.98
2018-08-17T02:12:46.857Z,90.75
2018-08-17T02:13:46.786Z,89.50
2018-08-17T02:14:46.740Z,89.60
2018-08-17T02:15:46.653Z,89.50
2018-08-17T02:16:46.561Z,89.22
2018-08-17T02:17:46.487Z,89.22
2018-08-17T02:18:46.416Z,90.08
2018-08-17T02:19:46.341Z,90.27
2018-08-17T02:20:46.268Z,89.31
2018-08-17T02:21:46.193Z,89.12
2018-08-17T02:22:46.119Z,89.79
2018-08-17T02:23:46.044Z,89.22
2018-08-17T02:24:45.983Z,88.93
2018-08-17T02:25:45.899Z,88.93
2018-08-17T02:26:45.829Z,87.77
2018-08-17T02:27:45.755Z,88.73
2018-08-17T02:28:45.678Z,89.40
2018-08-17T02:29:45.615Z,89.60
2018-08-17T02:30:45.528Z,90.37
2018-08-17T02:31:45.485Z,90.75
2018-08-17T02:32:45.379Z,91.52
2018-08-17T02:33:45.305Z,91.42
2018-08-17T02:34:45.245Z,91.13
2018-08-17T02:35:45.160Z,92.00
2018-08-17T02:36:45.084Z,91.33
2018-08-17T02:37:45.037Z,92.00
2018-08-17T02:38:44.937Z,90.84
2018-08-17T02:39:44.866Z,90.37
2018-08-17T02:40:44.805Z,89.79
2018-08-17T02:41:44.714Z,91.42
2018-08-17T02:42:44.642Z,91.04
2018-08-17T02:43:44.577Z,92.00
2018-08-17T02:44:44.492Z,91.47
2018-08-17T02:45:44.425Z,91.86
2018-08-17T02:46:44.345Z,92.24
2018-08-17T02:47:44.272Z,93.39
2018-08-17T02:48:44.207Z,92.53
2018-08-17T02:49:44.122Z,92.63
2018-08-17T02:50:44.050Z,92.05
2018-08-17T02:51:43.983Z,93.20
2018-08-17T02:52:43.900Z,93.10
2018-08-17T02:53:43.829Z,91.57
2018-08-17T02:54:43.755Z,92.91
2018-08-17T02:55:43.681Z,93.44
2018-08-17T02:56:43.608Z,92.63
2018-08-17T02:57:43.533Z,92.91
2018-08-17T02:58:43.504Z,93.10
2018-08-17T02:59:43.449Z,93.01
2018-08-17T03:00:43.307Z,92.33
2018-08-17T03:01:43.235Z,92.82
2018-08-17T03:02:43.160Z,93.01
2018-08-17T03:03:43.090Z,93.20
2018-08-17T03:04:43.022Z,92.43
2018-08-17T03:05:42.936Z,91.96
2018-08-17T03:06:42.865Z,91.76
2018-08-17T03:07:42.793Z,91.28
2018-08-17T03:08:42.714Z,92.05
2018-08-17T03:09:42.642Z,92.53
2018-08-17T03:10:42.569Z,93.77
2018-08-17T03:11:42.491Z,93.20
2018-08-17T03:12:42.416Z,94.45
2018-08-17T03:13:42.344Z,95.26
2018-08-17T03:14:42.269Z,95.75
2018-08-17T03:15:42.195Z,95.94
2018-08-17T03:16:42.122Z,96.70
2018-08-17T03:17:42.051Z,95.84
2018-08-17T03:18:41.974Z,95.65
2018-08-17T03:19:41.899Z,95.65
2018-08-17T03:20:41.826Z,95.55
2018-08-17T03:21:41.755Z,94.69
2018-08-17T03:22:41.678Z,94.98
2018-08-17T03:23:41.610Z,95.79
2018-08-17T03:24:41.526Z,95.03
2018-08-17T03:25:41.460Z,94.79
2018-08-17T03:26:41.392Z,94.88
2018-08-17T03:27:41.309Z,93.35
2018-08-17T03:28:41.232Z,93.59
2018-08-17T03:29:41.158Z,93.77
2018-08-17T03:30:41.082Z,93.35
2018-08-17T03:31:41.006Z,94.02
2018-08-17T03:32:40.936Z,94.02
2018-08-17T03:33:40.859Z,93.87
2018-08-17T03:34:40.790Z,93.39
2018-08-17T03:35:40.713Z,94.64
2018-08-17T03:36:40.634Z,93.30
2018-08-17T03:37:40.563Z,94.02
2018-08-17T03:38:40.485Z,93.30
2018-08-17T03:39:40.412Z,94.79
2018-08-17T03:40:40.337Z,94.79
2018-08-17T03:41:40.265Z,94.88
2018-08-17T03:42:40.191Z,95.75
2018-08-17T03:43:40.124Z,95.94
2018-08-17T03:44:40.039Z,96.70
2018-08-17T03:45:39.978Z,96.42
2018-08-17T03:46:39.892Z,97.38
2018-08-17T03:47:39.822Z,97.38
2018-08-17T03:48:46.900Z,97.56
2018-08-17T03:50:43.599Z,96.70
2018-08-17T03:51:43.480Z,98.62
2018-08-17T03:53:47.337Z,98.72
2018-08-17T03:54:47.221Z,99.73
2018-08-17T03:56:51.032Z,99.15
2018-08-17T03:57:50.953Z,99.63
2018-08-17T03:59:43.754Z,99.99
2018-08-17T04:00:43.635Z,99.99
2018-08-17T04:01:43.560Z,99.99
2018-08-17T04:02:43.486Z,99.99
2018-08-17T04:03:43.411Z,99.99
2018-08-17T04:04:43.335Z,99.99
2018-08-17T04:05:43.259Z,99.99
2018-08-17T04:06:43.186Z,99.99
2018-08-17T04:07:43.113Z,99.73
2018-08-17T04:08:43.047Z,99.99
2018-08-17T04:09:42.960Z,99.99
2018-08-17T04:10:42.885Z,99.99
2018-08-17T04:11:42.812Z,99.05
2018-08-17T04:12:42.737Z,99.63
2018-08-17T04:13:42.662Z,99.44
2018-08-17T04:14:42.592Z,98.96
2018-08-17T04:15:42.514Z,99.10
2018-08-17T04:16:42.461Z,99.24
2018-08-17T04:17:42.366Z,99.99
2018-08-17T04:18:42.290Z,99.91
2018-08-17T04:19:42.217Z,99.99
2018-08-17T04:20:42.155Z,99.99
2018-08-17T04:21:42.065Z,99.99
2018-08-17T04:22:41.990Z,99.99
2018-08-17T04:23:41.926Z,99.99
2018-08-17T04:24:41.844Z,99.99
2018-08-17T04:25:41.769Z,99.99
2018-08-17T04:26:41.693Z,99.99
2018-08-17T04:27:41.618Z,99.99
2018-08-17T04:28:41.548Z,99.99
2018-08-17T04:29:41.468Z,99.99
2018-08-17T04:30:41.412Z,99.99
2018-08-17T04:31:41.341Z,99.99
2018-08-17T04:32:41.245Z,99.99
2018-08-17T04:33:41.171Z,99.99
2018-08-17T04:34:41.095Z,99.99
2018-08-17T04:35:41.025Z,99.99
2018-08-17T04:36:40.948Z,99.99
2018-08-17T04:37:40.870Z,99.99
2018-08-17T04:38:40.804Z,99.99
2018-08-17T04:39:40.722Z,99.99
2018-08-17T04:40:40.647Z,99.99
2018-08-17T04:41:40.571Z,99.99
2018-08-17T04:42:40.500Z,99.99
2018-08-17T04:43:40.426Z,99.99
2018-08-17T04:44:40.347Z,99.99
2018-08-17T04:45:40.271Z,99.99
2018-08-17T04:46:40.197Z,99.99
2018-08-17T04:47:40.122Z,99.99
2018-08-17T04:48:40.047Z,99.99
2018-08-17T04:49:39.981Z,99.99
2018-08-17T04:50:39.898Z,99.99
2018-08-17T04:51:39.832Z,99.99
2018-08-17T04:52:39.748Z,99.99
2018-08-17T04:53:39.681Z,99.99
2018-08-17T04:54:39.605Z,99.99
2018-08-17T04:55:39.539Z,99.99
2018-08-17T04:56:39.448Z,99.99
2018-08-17T04:57:39.394Z,99.99
2018-08-17T04:58:39.301Z,99.99
2018-08-17T04:59:39.223Z,99.99
2018-08-17T05:00:39.153Z,99.99
2018-08-17T05:01:39.075Z,99.99
2018-08-17T05:02:39.002Z,99.99
2018-08-17T05:03:38.926Z,99.99
2018-08-17T05:04:38.851Z,99.99
2018-08-17T05:05:38.776Z,99.99
2018-08-17T05:06:38.700Z,99.99
2018-08-17T05:07:38.626Z,99.99
2018-08-17T05:08:38.552Z,99.99
2018-08-17T05:09:38.479Z,99.99
2018-08-17T05:10:38.404Z,99.99
2018-08-17T05:11:38.329Z,99.99
2018-08-17T05:12:38.252Z,99.99
2018-08-17T05:13:38.177Z,99.99
2018-08-17T05:14:38.103Z,99.99
2018-08-17T05:15:38.029Z,99.99
2018-08-17T05:16:37.953Z,99.99
2018-08-17T05:17:37.876Z,99.99
2018-08-17T05:18:37.806Z,99.99
2018-08-17T05:19:37.730Z,99.99
2018-08-17T05:20:37.657Z,99.99
2018-08-17T05:21:37.587Z,99.99
2018-08-17T05:22:37.503Z,99.99
2018-08-17T05:23:37.433Z,99.99
2018-08-17T05:24:37.377Z,99.99
2018-08-17T05:25:37.280Z,99.99
2018-08-17T05:26:37.210Z,99.99
2018-08-17T05:27:37.141Z,99.99
2018-08-17T05:28:37.057Z,99.99
2018-08-17T05:29:36.986Z,99.99
2018-08-17T05:30:36.909Z,99.99
2018-08-17T05:31:36.838Z,99.99
2018-08-17T05:32:36.763Z,99.99
2018-08-17T05:33:36.683Z,99.99
2018-08-17T05:34:36.610Z,99.99
2018-08-17T05:35:36.536Z,99.99
2018-08-17T05:36:36.464Z,99.99
2018-08-17T05:37:36.390Z,99.99
2018-08-17T05:38:36.315Z,99.99
2018-08-17T05:39:36.242Z,99.99
2018-08-17T05:40:36.164Z,99.99
2018-08-17T05:41:36.092Z,98.86
2018-08-17T05:42:36.016Z,99.15
2018-08-17T05:43:35.964Z,99.44
2018-08-17T05:44:35.866Z,99.63
2018-08-17T05:45:35.802Z,99.25
2018-08-17T05:46:35.716Z,97.91
2018-08-17T05:47:35.653Z,98.10
2018-08-17T05:48:35.594Z,97.91
2018-08-17T05:49:35.495Z,97.91
2018-08-17T05:50:35.421Z,98.48
2018-08-17T05:51:35.345Z,98.86
2018-08-17T05:52:35.271Z,99.05
2018-08-17T05:53:35.238Z,97.52
2018-08-17T05:54:35.122Z,97.91
2018-08-17T05:55:35.049Z,97.91
2018-08-17T05:56:35.028Z,98.34
2018-08-17T05:57:34.898Z,97.38
2018-08-17T05:58:34.826Z,97.66
2018-08-17T05:59:34.751Z,97.96
2018-08-17T06:00:34.700Z,97.47
2018-08-17T06:01:34.605Z,96.99
2018-08-17T06:02:34.536Z,96.80
2018-08-17T06:03:34.458Z,95.94
2018-08-17T06:04:34.384Z,95.65
2018-08-17T06:05:34.308Z,94.98
2018-08-17T06:06:34.233Z,94.21
2018-08-17T06:07:34.160Z,94.54
2018-08-17T06:08:34.088Z,94.98
2018-08-17T06:09:34.010Z,95.12
2018-08-17T06:10:33.940Z,94.16
2018-08-17T06:11:33.890Z,93.77
2018-08-17T06:12:33.795Z,94.35
2018-08-17T06:13:33.725Z,93.87
2018-08-17T06:14:33.649Z,93.96
2018-08-17T06:15:33.578Z,93.19
2018-08-17T06:16:33.498Z,93.10
2018-08-17T06:17:33.419Z,92.14
2018-08-17T06:18:33.350Z,92.38
2018-08-17T06:19:33.276Z,92.47
2018-08-17T06:20:33.201Z,91.56
2018-08-17T06:21:33.126Z,91.71
2018-08-17T06:22:33.057Z,91.80
2018-08-17T06:23:32.980Z,92.76
2018-08-17T06:24:32.907Z,93.34
2018-08-17T06:25:32.836Z,93.05
2018-08-17T06:26:32.758Z,91.90
2018-08-17T06:27:32.684Z,91.42
2018-08-17T06:28:32.625Z,91.22
2018-08-17T06:29:32.540Z,91.52
2018-08-17T06:30:32.465Z,91.90
2018-08-17T06:31:32.393Z,91.66
2018-08-17T06:32:32.321Z,89.69
2018-08-17T06:33:32.246Z,90.41
2018-08-17T06:34:32.168Z,89.92
2018-08-17T06:35:32.101Z,89.92
2018-08-17T06:36:32.029Z,90.12
2018-08-17T06:37:31.983Z,90.50
2018-08-17T06:38:31.877Z,90.21
2018-08-17T06:39:31.810Z,90.02
2018-08-17T06:40:31.731Z,90.41
2018-08-17T06:41:31.656Z,89.73
2018-08-17T06:42:31.583Z,89.25
2018-08-17T06:43:31.512Z,89.20
2018-08-17T06:44:31.438Z,88.19
2018-08-17T06:45:31.364Z,89.49
2018-08-17T06:46:31.293Z,89.78
2018-08-17T06:47:31.219Z,89.01
2018-08-17T06:48:31.148Z,89.20
2018-08-17T06:49:31.074Z,89.49
2018-08-17T06:50:31.022Z,89.10
2018-08-17T06:51:30.927Z,89.20
2018-08-17T06:52:30.857Z,88.33
2018-08-17T06:53:30.784Z,88.04
2018-08-17T06:54:30.707Z,87.56
2018-08-17T06:55:30.636Z,87.08
2018-08-17T06:56:30.562Z,87.37
2018-08-17T06:57:30.490Z,87.27
2018-08-17T06:58:30.418Z,86.93
2018-08-17T06:59:30.349Z,87.70
2018-08-17T07:00:30.316Z,87.80
2018-08-17T07:01:30.207Z,87.99
2018-08-17T07:02:30.132Z,89.24
2018-08-17T07:03:30.055Z,89.15
2018-08-17T07:04:29.983Z,87.80
2018-08-17T07:05:29.913Z,87.80
2018-08-17T07:06:29.833Z,87.99
2018-08-17T07:07:29.762Z,87.12
2018-08-17T07:08:29.691Z,86.07
2018-08-17T07:09:29.679Z,85.87
2018-08-17T07:10:29.548Z,86.07
2018-08-17T07:11:29.474Z,85.68
2018-08-17T07:12:29.399Z,85.82
2018-08-17T07:13:29.352Z,84.28
2018-08-17T07:14:29.252Z,83.89
2018-08-17T07:15:29.180Z,85.24
2018-08-17T07:16:29.113Z,84.47
2018-08-17T07:17:29.034Z,83.89
2018-08-17T07:18:28.962Z,84.47
2018-08-17T07:19:28.891Z,83.51
2018-08-17T07:20:28.821Z,84.61
2018-08-17T07:21:28.758Z,83.74
2018-08-17T07:22:28.672Z,83.74
2018-08-17T07:23:28.600Z,83.07
2018-08-17T07:24:28.528Z,82.20
2018-08-17T07:25:28.455Z,82.01
2018-08-17T07:26:28.389Z,82.29
2018-08-17T07:27:28.311Z,81.62
2018-08-17T07:28:28.240Z,81.43
2018-08-17T07:29:28.168Z,81.24
2018-08-17T07:30:28.094Z,79.79
2018-08-17T07:31:28.022Z,80.76
2018-08-17T07:32:27.957Z,80.02
2018-08-17T07:33:27.877Z,79.74
2018-08-17T07:34:27.806Z,78.86
2018-08-17T07:35:27.770Z,78.77
2018-08-17T07:36:27.670Z,78.58
2018-08-17T07:37:27.595Z,78.38
2018-08-17T07:38:27.518Z,78.77
2018-08-17T07:39:27.448Z,78.09
2018-08-17T07:40:27.376Z,78.03
2018-08-17T07:41:27.300Z,77.46
2018-08-17T07:42:27.230Z,77.07
2018-08-17T07:43:27.158Z,77.75
2018-08-17T07:44:27.085Z,77.17
2018-08-17T07:45:27.098Z,77.26
2018-08-17T07:46:26.956Z,77.65
2018-08-17T07:47:26.880Z,76.78
2018-08-17T07:48:26.806Z,77.07
2018-08-17T07:49:26.733Z,76.15
2018-08-17T07:50:26.663Z,75.76
2018-08-17T07:51:26.585Z,75.76
2018-08-17T07:52:26.512Z,75.67
2018-08-17T07:53:26.439Z,75.76
2018-08-17T07:54:26.368Z,75.09
2018-08-17T07:55:26.296Z,75.67
2018-08-17T07:56:26.225Z,74.99
2018-08-17T07:57:26.154Z,73.73
2018-08-17T07:58:26.085Z,74.25
2018-08-17T07:59:26.010Z,74.35
2018-08-17T08:00:25.956Z,73.86
2018-08-17T08:01:25.869Z,74.06
2018-08-17T08:02:25.795Z,74.16
2018-08-17T08:03:25.725Z,71.06
2018-08-17T08:04:25.658Z,68.65
2018-08-17T08:05:25.583Z,68.26
2018-08-17T08:06:25.513Z,68.65
2018-08-17T08:07:25.442Z,67.33
2018-08-17T08:08:25.370Z,67.24
2018-08-17T08:09:25.296Z,64.14
2018-08-17T08:10:25.233Z,63.85
2018-08-17T08:11:25.155Z,62.40
2018-08-17T08:12:25.086Z,61.73
2018-08-17T08:13:25.012Z,62.31
2018-08-17T08:14:24.942Z,62.50
2018-08-17T08:15:24.871Z,61.27
2018-08-17T08:16:24.800Z,59.92
2018-08-17T08:17:24.728Z,59.25
2018-08-17T08:18:24.658Z,59.05
2018-08-17T08:19:24.588Z,58.67
2018-08-17T08:20:24.638Z,59.05
2018-08-17T08:21:24.446Z,58.76
2018-08-17T08:22:24.375Z,58.67
2018-08-17T08:23:24.306Z,58.57
2018-08-17T08:24:24.274Z,57.89
2018-08-17T08:25:24.164Z,57.51
2018-08-17T08:26:24.091Z,58.76
2018-08-17T08:27:24.020Z,59.28
2018-08-17T08:28:23.952Z,59.56
2018-08-17T08:29:23.879Z,59.95
2018-08-17T08:30:23.808Z,59.28
2018-08-17T08:31:23.760Z,58.98
2018-08-17T08:32:23.730Z,58.70
2018-08-17T08:33:23.598Z,59.08
2018-08-17T08:34:23.526Z,58.40
2018-08-17T08:35:23.457Z,57.82
2018-08-17T08:36:23.387Z,57.63
2018-08-17T08:37:23.317Z,57.92
2018-08-17T08:38:23.248Z,57.95
2018-08-17T08:39:23.175Z,57.66
2018-08-17T08:40:23.105Z,58.82
2018-08-17T08:41:23.033Z,59.40
2018-08-17T08:42:22.974Z,59.31
2018-08-17T08:43:22.893Z,60.08
2018-08-17T08:44:22.827Z,59.79
2018-08-17T08:45:22.785Z,59.69
2018-08-17T08:46:22.682Z,59.01
2018-08-17T08:47:22.611Z,59.11
2018-08-17T08:48:22.562Z,58.44
2018-08-17T08:49:22.470Z,58.44
2018-08-17T08:50:22.400Z,58.14
2018-08-17T08:51:22.332Z,58.17
2018-08-17T08:52:22.266Z,58.47
2018-08-17T08:53:22.191Z,58.27
2018-08-17T08:54:22.120Z,58.27
2018-08-17T08:55:22.053Z,57.88
2018-08-17T08:56:21.986Z,57.20
2018-08-17T08:57:21.913Z,57.01
2018-08-17T08:58:21.841Z,56.52
2018-08-17T08:59:21.770Z,57.20
2018-08-17T09:00:21.716Z,56.46
2018-08-17T09:01:21.645Z,56.52
2018-08-17T09:02:21.560Z,56.46
2018-08-17T09:03:21.496Z,56.26
2018-08-17T09:04:21.424Z,55.78
2018-08-17T09:05:21.353Z,55.00
2018-08-17T09:06:21.284Z,55.78
2018-08-17T09:07:21.213Z,56.56
2018-08-17T09:08:21.195Z,57.43
2018-08-17T09:09:21.072Z,56.56
2018-08-17T09:10:21.006Z,56.16
2018-08-17T09:11:20.935Z,54.81
2018-08-17T09:12:20.868Z,55.10
2018-08-17T09:13:20.796Z,55.10
2018-08-17T09:14:20.726Z,54.81
2018-08-17T09:15:20.659Z,54.74
2018-08-17T09:16:20.586Z,53.97
2018-08-17T09:17:20.515Z,54.16
2018-08-17T09:18:20.446Z,54.16
2018-08-17T09:19:20.377Z,53.87
2018-08-17T09:20:20.329Z,51.25
2018-08-17T09:21:20.237Z,50.48
2018-08-17T09:22:20.172Z,50.48
2018-08-17T09:23:20.125Z,51.09
2018-08-17T09:24:20.034Z,51.35
2018-08-17T09:25:19.961Z,50.57
2018-08-17T09:26:19.890Z,51.16
2018-08-17T09:27:19.823Z,51.64
2018-08-17T09:28:19.756Z,51.37
2018-08-17T09:29:19.729Z,52.06
2018-08-17T09:30:19.704Z,51.47
2018-08-17T09:31:19.544Z,49.63
2018-08-17T09:32:19.475Z,49.34
2018-08-17T09:33:19.405Z,49.34
2018-08-17T09:34:19.342Z,49.05
2018-08-17T09:35:19.264Z,48.18
2018-08-17T09:36:19.196Z,48.57
2018-08-17T09:37:19.136Z,49.54
2018-08-17T09:38:19.060Z,49.56
2018-08-17T09:39:18.990Z,50.53
2018-08-17T09:40:18.922Z,52.08
2018-08-17T09:41:18.850Z,51.01
2018-08-17T09:42:18.793Z,51.98
2018-08-17T09:43:18.716Z,51.79
2018-08-17T09:44:18.644Z,52.08
2018-08-17T09:45:18.591Z,51.69
2018-08-17T09:46:18.505Z,49.44
2018-08-17T09:47:18.436Z,47.62
2018-08-17T09:48:18.371Z,47.42
2018-08-17T09:49:25.455Z,47.13
2018-08-17T09:51:22.292Z,47.72
2018-08-17T09:52:22.050Z,48.32
2018-08-17T09:53:21.982Z,49.56
2018-08-17T09:54:21.911Z,50.26
2018-08-17T09:55:21.842Z,49.97
2018-08-17T09:56:21.781Z,49.17
2018-08-17T09:57:21.722Z,49.39
2018-08-17T09:58:21.639Z,48.32
2018-08-17T09:59:21.570Z,49.58
2018-08-17T10:00:21.502Z,50.07
2018-08-17T10:01:21.429Z,48.13
2018-08-17T10:02:21.366Z,46.67
2018-08-17T10:03:21.299Z,45.80
2018-08-17T10:04:21.227Z,46.31
2018-08-17T10:05:21.155Z,46.69
2018-08-17T10:06:21.092Z,45.82
2018-08-17T10:07:21.017Z,45.62
2018-08-17T10:08:20.957Z,45.43
2018-08-17T10:09:20.881Z,46.89
2018-08-17T10:10:20.822Z,47.38
2018-08-17T10:11:20.743Z,47.38
2018-08-17T10:12:20.676Z,46.60
2018-08-17T10:13:20.620Z,47.49
2018-08-17T10:14:20.538Z,46.41
2018-08-17T10:15:20.475Z,45.07
2018-08-17T10:16:20.409Z,44.87
2018-08-17T10:17:20.336Z,43.80
2018-08-17T10:18:20.265Z,44.87
2018-08-17T10:19:20.196Z,45.07
2018-08-17T10:20:20.128Z,46.62
2018-08-17T10:21:20.307Z,46.23
2018-08-17T10:22:19.990Z,44.87
2018-08-17T10:23:19.922Z,45.94
2018-08-17T10:24:19.852Z,46.52
2018-08-17T10:25:19.785Z,45.09
2018-08-17T10:26:19.716Z,45.77
2018-08-17T10:27:19.646Z,45.97
2018-08-17T10:28:19.579Z,45.77
2018-08-17T10:29:19.516Z,45.48
2018-08-17T10:30:19.450Z,45.98
2018-08-17T10:31:19.378Z,45.40
2018-08-17T10:32:19.316Z,45.98
2018-08-17T10:33:19.237Z,44.43
2018-08-17T10:34:19.171Z,43.46
2018-08-17T10:35:19.099Z,44.62
2018-08-17T10:36:19.044Z,43.19
2018-08-17T10:37:18.968Z,44.26
2018-08-17T10:38:18.897Z,41.63
2018-08-17T10:39:18.830Z,41.53
2018-08-17T10:40:18.762Z,43.29
2018-08-17T10:41:18.695Z,43.48
2018-08-17T10:42:18.628Z,43.30
2018-08-17T10:43:18.558Z,43.19
2018-08-17T10:44:18.493Z,40.75
2018-08-17T10:45:18.424Z,40.58
2018-08-17T10:46:18.355Z,42.82
2018-08-17T10:47:18.289Z,42.82
2018-08-17T10:48:18.219Z,39.90
2018-08-17T10:49:18.238Z,41.06
2018-08-17T10:50:18.086Z,41.48
2018-08-17T10:51:18.022Z,41.85
2018-08-17T10:52:17.963Z,42.06
2018-08-17T10:53:17.881Z,42.06
2018-08-17T10:54:17.819Z,40.00
2018-08-17T10:55:17.749Z,40.01
2018-08-17T10:56:17.702Z,38.64
2018-08-17T10:57:17.665Z,38.95
2018-08-17T10:58:17.543Z,39.14
2018-08-17T10:59:17.475Z,39.62
2018-08-17T11:00:17.408Z,39.14
2018-08-17T11:01:17.345Z,39.04
2018-08-17T11:02:17.274Z,39.62
2018-08-17T11:03:17.215Z,38.85
2018-08-17T11:04:17.163Z,38.26
2018-08-17T11:05:17.072Z,38.46
2018-08-17T11:06:17.012Z,38.75
2018-08-17T11:07:16.939Z,38.85
2018-08-17T11:08:16.870Z,39.14
2018-08-17T11:09:16.804Z,39.75
2018-08-17T11:10:16.738Z,39.94
2018-08-17T11:11:16.668Z,41.30
2018-08-17T11:12:16.604Z,41.60
2018-08-17T11:13:16.537Z,41.69
2018-08-17T11:14:16.468Z,41.69
2018-08-17T11:15:16.402Z,40.42
2018-08-17T11:16:16.335Z,38.96
2018-08-17T11:17:16.270Z,39.94
2018-08-17T11:18:16.205Z,39.75
2018-08-17T11:19:16.130Z,40.52
2018-08-17T11:20:16.065Z,40.03
2018-08-17T11:21:16.004Z,37.99
2018-08-17T11:22:15.929Z,37.89
2018-08-17T11:23:15.862Z,37.89
2018-08-17T11:24:15.799Z,37.31
2018-08-17T11:25:15.729Z,37.33
2018-08-17T11:26:15.673Z,37.33
2018-08-17T11:27:15.598Z,36.94
2018-08-17T11:28:15.528Z,35.96
2018-08-17T11:29:15.489Z,35.86
2018-08-17T11:30:15.393Z,35.08
2018-08-17T11:31:15.329Z,34.40
2018-08-17T11:32:15.262Z,34.91
2018-08-17T11:33:15.194Z,34.71
2018-08-17T11:34:15.179Z,34.61
2018-08-17T11:35:15.064Z,34.61
2018-08-17T11:36:14.996Z,34.71
2018-08-17T11:37:14.927Z,34.71
2018-08-17T11:38:14.860Z,35.41
2018-08-17T11:39:14.794Z,35.22
2018-08-17T11:40:14.731Z,36.00
2018-08-17T11:41:14.709Z,34.92
2018-08-17T11:42:14.594Z,34.44
2018-08-17T11:43:14.529Z,35.12
2018-08-17T11:44:14.461Z,34.06
2018-08-17T11:45:14.401Z,34.94
2018-08-17T11:46:14.350Z,34.45
2018-08-17T11:47:14.266Z,34.47
2018-08-17T11:48:14.196Z,34.77
2018-08-17T11:49:14.129Z,33.59
2018-08-17T11:50:14.063Z,33.79
2018-08-17T11:51:13.996Z,33.01
2018-08-17T11:52:13.931Z,33.01
2018-08-17T11:53:13.866Z,32.34
2018-08-17T11:54:13.801Z,30.29
2018-08-17T11:55:13.731Z,29.60
2018-08-17T11:56:13.669Z,29.80
2018-08-17T11:57:13.618Z,29.41
2018-08-17T11:58:13.536Z,29.02
2018-08-17T11:59:13.467Z,28.91
2018-08-17T12:00:13.414Z,29.79
2018-08-17T12:01:13.401Z,30.97
2018-08-17T12:02:13.269Z,29.59
2018-08-17T12:03:13.204Z,30.77
2018-08-17T12:04:13.137Z,30.29
2018-08-17T12:05:13.082Z,30.19
2018-08-17T12:06:13.005Z,30.97
2018-08-17T12:07:12.940Z,30.97
2018-08-17T12:08:12.976Z,29.61
2018-08-17T12:09:12.810Z,28.72
2018-08-17T12:10:12.744Z,29.11
2018-08-17T12:11:12.677Z,31.38
2018-08-17T12:12:12.612Z,29.13
2018-08-17T12:13:12.552Z,28.92
2018-08-17T12:14:12.509Z,29.61
2018-08-17T12:15:12.419Z,29.22
2018-08-17T12:16:12.351Z,28.63
2018-08-17T12:17:12.300Z,28.53
2018-08-17T12:18:12.221Z,29.22
2018-08-17T12:19:12.156Z,29.22
2018-08-17T12:20:12.103Z,28.93
2018-08-17T12:21:12.028Z,29.44
2018-08-17T12:22:11.963Z,28.55
2018-08-17T12:23:11.903Z,27.87
2018-08-17T12:24:11.848Z,28.28
2018-08-17T12:25:11.936Z,29.68
2018-08-17T12:26:11.712Z,26.84
2018-08-17T12:27:11.650Z,26.07
2018-08-17T12:28:11.592Z,26.79
2018-08-17T12:29:11.533Z,26.23
2018-08-17T12:30:11.469Z,23.99
2018-08-17T12:31:11.410Z,26.36
2018-08-17T12:32:11.440Z,26.48
2018-08-17T12:33:11.296Z,26.12
2018-08-17T12:34:11.241Z,24.95
2018-08-17T12:35:11.180Z,24.97
2018-08-17T12:36:11.124Z,23.40
2018-08-17T12:37:11.067Z,22.61
2018-08-17T12:38:11.005Z,23.61
2018-08-17T12:39:10.948Z,24.03
2018-08-17T12:40:11.006Z,21.56
2018-08-17T12:41:10.836Z,20.49
2018-08-17T12:42:10.784Z,22.67
2018-08-17T12:43:10.725Z,21.70
2018-08-17T12:44:10.670Z,21.11
2018-08-17T12:45:10.615Z,19.73
2018-08-17T12:46:10.560Z,18.75
2018-08-17T12:47:10.504Z,18.65
2018-08-17T12:48:10.451Z,19.06
2018-08-17T12:49:10.399Z,20.54
2018-08-17T12:50:10.343Z,20.26
2018-08-17T12:51:10.288Z,20.57
2018-08-17T12:52:10.276Z,19.59
2018-08-17T12:53:10.182Z,18.30
2018-08-17T12:54:10.131Z,16.72
2018-08-17T12:55:10.083Z,17.40
2018-08-17T12:56:10.022Z,17.41
2018-08-17T12:57:09.970Z,17.12